sensor_id;sensor_type;location;lat;lon;timestamp;temperature;humidity
4643;DHT22;2334;48.710;9.622;2024-01-30T00:01:04;0.60;99.90
4643;DHT22;2334;48.710;9.622;2024-01-30T00:03:30;0.60;99.90
4643;DHT22;2334;48.710;9.622;2024-01-30T00:05:57;0.60;99.90
4643;DHT22;2334;48.710;9.622;2024-01-30T00:08:24;0.60;99.90
4643;DHT22;2334;48.710;9.622;2024-01-30T00:10:52;0.60;99.90
4643;DHT22;2334;48.710;9.622;2024-01-30T00:13:22;0.60;99.90
4643;DHT22;2334;48.710;9.622;2024-01-30T00:15:48;0.50;99.90
4643;DHT22;2334;48.710;9.622;2024-01-30T00:18:15;0.60;99.90
4643;DHT22;2334;48.710;9.622;2024-01-30T00:20:42;0.60;99.90
4643;DHT22;2334;48.710;9.622;2024-01-30T00:23:09;0.60;99.90
4643;DHT22;2334;48.710;9.622;2024-01-30T00:25:36;0.60;99.90
4643;DHT22;2334;48.710;9.622;2024-01-30T00:28:05;0.50;99.90
4643;DHT22;2334;48.710;9.622;2024-01-30T00:30:32;0.50;99.90
4643;DHT22;2334;48.710;9.622;2024-01-30T00:32:58;0.50;99.90
4643;DHT22;2334;48.710;9.622;2024-01-30T00:35:25;0.40;99.90
4643;DHT22;2334;48.710;9.622;2024-01-30T00:37:52;0.40;99.90
4643;DHT22;2334;48.710;9.622;2024-01-30T00:40:19;0.40;99.90
4643;DHT22;2334;48.710;9.622;2024-01-30T00:42:46;0.40;99.90
4643;DHT22;2334;48.710;9.622;2024-01-30T00:45:15;0.30;99.90
4643;DHT22;2334;48.710;9.622;2024-01-30T00:47:42;0.30;99.90
4643;DHT22;2334;48.710;9.622;2024-01-30T00:50:10;0.30;99.90
4643;DHT22;2334;48.710;9.622;2024-01-30T00:52:36;0.30;99.90
4643;DHT22;2334;48.710;9.622;2024-01-30T00:55:05;0.30;99.90
4643;DHT22;2334;48.710;9.622;2024-01-30T00:57:32;0.20;99.90
4643;DHT22;2334;48.710;9.622;2024-01-30T00:59:59;0.20;99.90
4643;DHT22;2334;48.710;9.622;2024-01-30T01:02:27;0.20;99.90
4643;DHT22;2334;48.710;9.622;2024-01-30T01:04:54;0.20;99.90
4643;DHT22;2334;48.710;9.622;2024-01-30T01:07:21;0.20;99.90
4643;DHT22;2334;48.710;9.622;2024-01-30T01:09:47;0.20;99.90
4643;DHT22;2334;48.710;9.622;2024-01-30T01:12:14;0.20;99.90
4643;DHT22;2334;48.710;9.622;2024-01-30T01:14:41;0.20;99.90
4643;DHT22;2334;48.710;9.622;2024-01-30T01:17:08;0.10;99.90
4643;DHT22;2334;48.710;9.622;2024-01-30T01:19:37;0.10;99.90
4643;DHT22;2334;48.710;9.622;2024-01-30T01:22:03;0.10;99.90
4643;DHT22;2334;48.710;9.622;2024-01-30T01:24:31;0.10;99.90
4643;DHT22;2334;48.710;9.622;2024-01-30T01:26:58;0.20;99.90
4643;DHT22;2334;48.710;9.622;2024-01-30T01:29:25;0.10;99.90
4643;DHT22;2334;48.710;9.622;2024-01-30T01:31:54;0.10;99.90
4643;DHT22;2334;48.710;9.622;2024-01-30T01:34:21;0.10;99.90
4643;DHT22;2334;48.710;9.622;2024-01-30T01:36:50;0.10;99.90
4643;DHT22;2334;48.710;9.622;2024-01-30T01:39:17;0.00;99.90
4643;DHT22;2334;48.710;9.622;2024-01-30T01:41:44;-0.10;99.90
4643;DHT22;2334;48.710;9.622;2024-01-30T01:44:11;-0.10;99.90
4643;DHT22;2334;48.710;9.622;2024-01-30T01:46:38;0.00;99.90
4643;DHT22;2334;48.710;9.622;2024-01-30T01:49:05;0.00;99.90
4643;DHT22;2334;48.710;9.622;2024-01-30T01:51:34;0.10;99.90
4643;DHT22;2334;48.710;9.622;2024-01-30T01:54:04;0.10;99.90
4643;DHT22;2334;48.710;9.622;2024-01-30T01:56:31;0.10;99.90
4643;DHT22;2334;48.710;9.622;2024-01-30T01:59:03;0.00;99.90
4643;DHT22;2334;48.710;9.622;2024-01-30T02:01:31;0.10;99.90
4643;DHT22;2334;48.710;9.622;2024-01-30T02:03:59;0.10;99.90
4643;DHT22;2334;48.710;9.622;2024-01-30T02:06:26;0.10;99.90
4643;DHT22;2334;48.710;9.622;2024-01-30T02:08:53;0.10;99.90
4643;DHT22;2334;48.710;9.622;2024-01-30T02:11:22;0.00;99.90
4643;DHT22;2334;48.710;9.622;2024-01-30T02:13:49;0.10;99.90
4643;DHT22;2334;48.710;9.622;2024-01-30T02:16:16;-0.10;99.90
4643;DHT22;2334;48.710;9.622;2024-01-30T02:18:43;-0.10;99.90
4643;DHT22;2334;48.710;9.622;2024-01-30T02:21:14;-0.10;99.90
4643;DHT22;2334;48.710;9.622;2024-01-30T02:23:43;-0.10;99.90
4643;DHT22;2334;48.710;9.622;2024-01-30T02:26:10;-0.10;99.90
4643;DHT22;2334;48.710;9.622;2024-01-30T02:28:37;0.00;99.90
4643;DHT22;2334;48.710;9.622;2024-01-30T02:31:04;0.00;99.90
4643;DHT22;2334;48.710;9.622;2024-01-30T02:33:31;-0.10;99.90
4643;DHT22;2334;48.710;9.622;2024-01-30T02:35:58;-0.10;99.90
4643;DHT22;2334;48.710;9.622;2024-01-30T02:38:26;-0.10;99.90
4643;DHT22;2334;48.710;9.622;2024-01-30T02:40:54;0.00;99.90
4643;DHT22;2334;48.710;9.622;2024-01-30T02:43:21;0.00;99.90
4643;DHT22;2334;48.710;9.622;2024-01-30T02:45:48;0.00;99.90
4643;DHT22;2334;48.710;9.622;2024-01-30T02:48:14;0.00;99.90
4643;DHT22;2334;48.710;9.622;2024-01-30T02:50:41;0.00;99.90
4643;DHT22;2334;48.710;9.622;2024-01-30T02:53:08;0.00;99.90
4643;DHT22;2334;48.710;9.622;2024-01-30T02:55:36;0.00;99.90
4643;DHT22;2334;48.710;9.622;2024-01-30T02:58:03;0.00;99.90
4643;DHT22;2334;48.710;9.622;2024-01-30T03:00:30;0.00;99.90
4643;DHT22;2334;48.710;9.622;2024-01-30T03:02:57;-0.10;99.90
4643;DHT22;2334;48.710;9.622;2024-01-30T03:05:24;-0.10;99.90
4643;DHT22;2334;48.710;9.622;2024-01-30T03:07:51;-0.10;99.90
4643;DHT22;2334;48.710;9.622;2024-01-30T03:10:18;-0.10;99.90
4643;DHT22;2334;48.710;9.622;2024-01-30T03:12:46;-0.10;99.90
4643;DHT22;2334;48.710;9.622;2024-01-30T03:15:13;-0.10;99.90
4643;DHT22;2334;48.710;9.622;2024-01-30T03:17:40;0.00;99.90
4643;DHT22;2334;48.710;9.622;2024-01-30T03:20:08;0.00;99.90
4643;DHT22;2334;48.710;9.622;2024-01-30T03:22:35;-0.10;99.90
4643;DHT22;2334;48.710;9.622;2024-01-30T03:25:03;-0.10;99.90
4643;DHT22;2334;48.710;9.622;2024-01-30T03:27:30;-0.10;99.90
4643;DHT22;2334;48.710;9.622;2024-01-30T03:30:00;-0.20;99.90
4643;DHT22;2334;48.710;9.622;2024-01-30T03:32:27;-0.20;99.90
4643;DHT22;2334;48.710;9.622;2024-01-30T03:34:54;-0.20;99.90
4643;DHT22;2334;48.710;9.622;2024-01-30T03:37:21;-0.20;99.90
4643;DHT22;2334;48.710;9.622;2024-01-30T03:39:48;-0.20;99.90
4643;DHT22;2334;48.710;9.622;2024-01-30T03:42:14;-0.20;99.90
4643;DHT22;2334;48.710;9.622;2024-01-30T03:44:42;-0.20;99.90
4643;DHT22;2334;48.710;9.622;2024-01-30T03:47:11;-0.30;99.90
4643;DHT22;2334;48.710;9.622;2024-01-30T03:49:38;-0.30;99.90
4643;DHT22;2334;48.710;9.622;2024-01-30T03:52:05;-0.30;99.90
4643;DHT22;2334;48.710;9.622;2024-01-30T03:54:32;-0.30;99.90
4643;DHT22;2334;48.710;9.622;2024-01-30T03:56:58;-0.20;99.90
4643;DHT22;2334;48.710;9.622;2024-01-30T03:59:28;-0.30;99.90
4643;DHT22;2334;48.710;9.622;2024-01-30T04:01:55;-0.30;99.90
4643;DHT22;2334;48.710;9.622;2024-01-30T04:04:23;-0.30;99.90
4643;DHT22;2334;48.710;9.622;2024-01-30T04:06:50;-0.30;99.90
4643;DHT22;2334;48.710;9.622;2024-01-30T04:09:16;-0.30;99.90
4643;DHT22;2334;48.710;9.622;2024-01-30T04:11:44;-0.40;99.90
4643;DHT22;2334;48.710;9.622;2024-01-30T04:14:11;-0.40;99.90
4643;DHT22;2334;48.710;9.622;2024-01-30T04:16:37;-0.40;99.90
4643;DHT22;2334;48.710;9.622;2024-01-30T04:19:04;-0.40;99.90
4643;DHT22;2334;48.710;9.622;2024-01-30T04:21:32;-0.40;99.90
4643;DHT22;2334;48.710;9.622;2024-01-30T04:23:59;-0.50;99.90
4643;DHT22;2334;48.710;9.622;2024-01-30T04:26:26;-0.50;99.90
4643;DHT22;2334;48.710;9.622;2024-01-30T04:28:53;-0.50;99.90
4643;DHT22;2334;48.710;9.622;2024-01-30T04:31:20;-0.50;99.90
4643;DHT22;2334;48.710;9.622;2024-01-30T04:33:47;-0.50;99.90
4643;DHT22;2334;48.710;9.622;2024-01-30T04:36:13;-0.50;99.90
4643;DHT22;2334;48.710;9.622;2024-01-30T04:38:42;-0.50;99.90
4643;DHT22;2334;48.710;9.622;2024-01-30T04:41:08;-0.50;99.90
4643;DHT22;2334;48.710;9.622;2024-01-30T04:43:35;-0.50;99.90
4643;DHT22;2334;48.710;9.622;2024-01-30T04:46:02;-0.60;99.90
4643;DHT22;2334;48.710;9.622;2024-01-30T04:48:29;-0.50;99.90
4643;DHT22;2334;48.710;9.622;2024-01-30T04:50:56;-0.50;99.90
4643;DHT22;2334;48.710;9.622;2024-01-30T04:53:23;-0.50;99.90
4643;DHT22;2334;48.710;9.622;2024-01-30T04:55:51;-0.50;99.90
4643;DHT22;2334;48.710;9.622;2024-01-30T04:58:18;-0.50;99.90
4643;DHT22;2334;48.710;9.622;2024-01-30T05:00:45;-0.50;99.90
4643;DHT22;2334;48.710;9.622;2024-01-30T05:03:17;-0.50;99.90
4643;DHT22;2334;48.710;9.622;2024-01-30T05:05:43;-0.50;99.90
4643;DHT22;2334;48.710;9.622;2024-01-30T05:08:10;-0.60;99.90
4643;DHT22;2334;48.710;9.622;2024-01-30T05:10:37;-0.60;99.90
4643;DHT22;2334;48.710;9.622;2024-01-30T05:13:05;-0.60;99.90
4643;DHT22;2334;48.710;9.622;2024-01-30T05:15:32;-0.70;99.90
4643;DHT22;2334;48.710;9.622;2024-01-30T05:17:59;-0.70;99.90
4643;DHT22;2334;48.710;9.622;2024-01-30T05:20:26;-0.70;99.90
4643;DHT22;2334;48.710;9.622;2024-01-30T05:22:53;-0.70;99.90
4643;DHT22;2334;48.710;9.622;2024-01-30T05:25:20;-0.70;99.90
4643;DHT22;2334;48.710;9.622;2024-01-30T05:27:47;-0.70;99.90
4643;DHT22;2334;48.710;9.622;2024-01-30T05:30:15;-0.70;99.90
4643;DHT22;2334;48.710;9.622;2024-01-30T05:32:43;-0.70;99.90
4643;DHT22;2334;48.710;9.622;2024-01-30T05:35:10;-0.70;99.90
4643;DHT22;2334;48.710;9.622;2024-01-30T05:37:37;-0.70;99.90
4643;DHT22;2334;48.710;9.622;2024-01-30T05:40:05;-0.70;99.90
4643;DHT22;2334;48.710;9.622;2024-01-30T05:42:32;-0.80;99.90
4643;DHT22;2334;48.710;9.622;2024-01-30T05:44:58;-0.80;99.90
4643;DHT22;2334;48.710;9.622;2024-01-30T05:47:27;-0.80;99.90
4643;DHT22;2334;48.710;9.622;2024-01-30T05:49:53;-0.80;99.90
4643;DHT22;2334;48.710;9.622;2024-01-30T05:52:20;-0.80;99.90
4643;DHT22;2334;48.710;9.622;2024-01-30T05:54:47;-0.80;99.90
4643;DHT22;2334;48.710;9.622;2024-01-30T05:57:14;-0.80;99.90
4643;DHT22;2334;48.710;9.622;2024-01-30T05:59:41;-0.80;99.90
4643;DHT22;2334;48.710;9.622;2024-01-30T06:02:10;-0.80;99.90
4643;DHT22;2334;48.710;9.622;2024-01-30T06:04:38;-0.80;99.90
4643;DHT22;2334;48.710;9.622;2024-01-30T06:07:05;-0.80;99.90
4643;DHT22;2334;48.710;9.622;2024-01-30T06:09:33;-0.80;99.90
4643;DHT22;2334;48.710;9.622;2024-01-30T06:12:00;-0.80;99.90
4643;DHT22;2334;48.710;9.622;2024-01-30T06:14:27;-0.80;99.90
4643;DHT22;2334;48.710;9.622;2024-01-30T06:16:54;-0.80;99.90
4643;DHT22;2334;48.710;9.622;2024-01-30T06:19:20;-0.80;99.90
4643;DHT22;2334;48.710;9.622;2024-01-30T06:21:49;-0.70;99.90
4643;DHT22;2334;48.710;9.622;2024-01-30T06:24:15;-0.80;99.90
4643;DHT22;2334;48.710;9.622;2024-01-30T06:26:42;-0.80;99.90
4643;DHT22;2334;48.710;9.622;2024-01-30T06:29:09;-0.80;99.90
4643;DHT22;2334;48.710;9.622;2024-01-30T06:31:40;-0.80;99.90
4643;DHT22;2334;48.710;9.622;2024-01-30T06:34:08;-0.80;99.90
4643;DHT22;2334;48.710;9.622;2024-01-30T06:36:35;-0.80;99.90
4643;DHT22;2334;48.710;9.622;2024-01-30T06:39:03;-0.80;99.90
4643;DHT22;2334;48.710;9.622;2024-01-30T06:41:30;-0.80;99.90
4643;DHT22;2334;48.710;9.622;2024-01-30T06:43:57;-0.80;99.90
4643;DHT22;2334;48.710;9.622;2024-01-30T06:46:24;-0.80;99.90
4643;DHT22;2334;48.710;9.622;2024-01-30T06:48:51;-0.80;99.90
4643;DHT22;2334;48.710;9.622;2024-01-30T06:51:18;-0.70;99.90
4643;DHT22;2334;48.710;9.622;2024-01-30T06:53:45;-0.70;99.90
4643;DHT22;2334;48.710;9.622;2024-01-30T06:56:13;-0.70;99.90
4643;DHT22;2334;48.710;9.622;2024-01-30T06:58:40;-0.70;99.90
4643;DHT22;2334;48.710;9.622;2024-01-30T07:01:07;-0.70;99.90
4643;DHT22;2334;48.710;9.622;2024-01-30T07:03:35;-0.70;99.90
4643;DHT22;2334;48.710;9.622;2024-01-30T07:06:02;-0.70;99.90
4643;DHT22;2334;48.710;9.622;2024-01-30T07:08:29;-0.70;99.90
4643;DHT22;2334;48.710;9.622;2024-01-30T07:10:56;-0.70;99.90
4643;DHT22;2334;48.710;9.622;2024-01-30T07:13:24;-0.70;99.90
4643;DHT22;2334;48.710;9.622;2024-01-30T07:15:51;-0.70;99.90
4643;DHT22;2334;48.710;9.622;2024-01-30T07:18:18;-0.60;99.90
4643;DHT22;2334;48.710;9.622;2024-01-30T07:20:45;-0.60;99.90
4643;DHT22;2334;48.710;9.622;2024-01-30T07:23:12;-0.60;99.90
4643;DHT22;2334;48.710;9.622;2024-01-30T07:25:41;-0.50;99.90
4643;DHT22;2334;48.710;9.622;2024-01-30T07:28:08;-0.50;99.90
4643;DHT22;2334;48.710;9.622;2024-01-30T07:30:37;-0.50;99.90
4643;DHT22;2334;48.710;9.622;2024-01-30T07:33:04;-0.40;99.90
4643;DHT22;2334;48.710;9.622;2024-01-30T07:35:31;-0.40;99.90
4643;DHT22;2334;48.710;9.622;2024-01-30T07:37:58;-0.30;99.90
4643;DHT22;2334;48.710;9.622;2024-01-30T07:40:24;-0.20;99.90
4643;DHT22;2334;48.710;9.622;2024-01-30T07:42:53;-0.20;99.90
4643;DHT22;2334;48.710;9.622;2024-01-30T07:45:20;-0.10;99.90
4643;DHT22;2334;48.710;9.622;2024-01-30T07:47:51;-0.10;99.90
4643;DHT22;2334;48.710;9.622;2024-01-30T07:50:18;-0.10;99.90
4643;DHT22;2334;48.710;9.622;2024-01-30T07:52:45;0.10;99.90
4643;DHT22;2334;48.710;9.622;2024-01-30T07:55:14;0.10;99.90
4643;DHT22;2334;48.710;9.622;2024-01-30T07:57:41;0.20;99.90
4643;DHT22;2334;48.710;9.622;2024-01-30T08:00:09;0.20;99.90
4643;DHT22;2334;48.710;9.622;2024-01-30T08:02:36;0.30;99.90
4643;DHT22;2334;48.710;9.622;2024-01-30T08:05:05;0.30;99.90
4643;DHT22;2334;48.710;9.622;2024-01-30T08:07:32;0.40;99.90
4643;DHT22;2334;48.710;9.622;2024-01-30T08:09:59;0.50;99.90
4643;DHT22;2334;48.710;9.622;2024-01-30T08:12:26;0.50;99.90
4643;DHT22;2334;48.710;9.622;2024-01-30T08:14:53;0.60;99.90
4643;DHT22;2334;48.710;9.622;2024-01-30T08:17:19;0.60;99.90
4643;DHT22;2334;48.710;9.622;2024-01-30T08:19:46;0.70;99.90
4643;DHT22;2334;48.710;9.622;2024-01-30T08:22:14;0.70;99.90
4643;DHT22;2334;48.710;9.622;2024-01-30T08:24:41;0.80;99.90
4643;DHT22;2334;48.710;9.622;2024-01-30T08:27:08;0.80;99.90
4643;DHT22;2334;48.710;9.622;2024-01-30T08:29:35;0.90;99.90
4643;DHT22;2334;48.710;9.622;2024-01-30T08:32:03;0.90;99.90
4643;DHT22;2334;48.710;9.622;2024-01-30T08:34:30;1.00;99.90
4643;DHT22;2334;48.710;9.622;2024-01-30T08:36:58;1.10;99.90
4643;DHT22;2334;48.710;9.622;2024-01-30T08:39:32;1.10;99.90
4643;DHT22;2334;48.710;9.622;2024-01-30T08:41:59;1.10;99.90
4643;DHT22;2334;48.710;9.622;2024-01-30T08:44:26;1.20;99.90
4643;DHT22;2334;48.710;9.622;2024-01-30T08:46:53;1.20;99.90
4643;DHT22;2334;48.710;9.622;2024-01-30T08:49:20;1.30;99.90
4643;DHT22;2334;48.710;9.622;2024-01-30T08:51:47;1.40;99.90
4643;DHT22;2334;48.710;9.622;2024-01-30T08:54:14;1.50;99.90
4643;DHT22;2334;48.710;9.622;2024-01-30T08:56:42;1.60;99.90
4643;DHT22;2334;48.710;9.622;2024-01-30T08:59:09;1.70;99.90
4643;DHT22;2334;48.710;9.622;2024-01-30T09:01:36;1.90;99.90
4643;DHT22;2334;48.710;9.622;2024-01-30T09:04:03;1.90;99.90
4643;DHT22;2334;48.710;9.622;2024-01-30T09:06:30;2.00;99.90
4643;DHT22;2334;48.710;9.622;2024-01-30T09:08:57;2.10;99.90
4643;DHT22;2334;48.710;9.622;2024-01-30T09:11:24;2.20;99.90
4643;DHT22;2334;48.710;9.622;2024-01-30T09:13:52;2.30;99.90
4643;DHT22;2334;48.710;9.622;2024-01-30T09:16:19;2.40;99.90
4643;DHT22;2334;48.710;9.622;2024-01-30T09:18:46;2.50;99.90
4643;DHT22;2334;48.710;9.622;2024-01-30T09:21:13;2.70;99.90
4643;DHT22;2334;48.710;9.622;2024-01-30T09:23:40;2.90;99.90
4643;DHT22;2334;48.710;9.622;2024-01-30T09:26:07;3.10;99.90
4643;DHT22;2334;48.710;9.622;2024-01-30T09:28:34;3.30;99.90
4643;DHT22;2334;48.710;9.622;2024-01-30T09:31:02;3.40;99.90
4643;DHT22;2334;48.710;9.622;2024-01-30T09:33:29;3.50;99.90
4643;DHT22;2334;48.710;9.622;2024-01-30T09:35:56;3.50;99.90
4643;DHT22;2334;48.710;9.622;2024-01-30T09:38:23;3.60;99.90
4643;DHT22;2334;48.710;9.622;2024-01-30T09:40:54;3.70;99.90
4643;DHT22;2334;48.710;9.622;2024-01-30T09:43:23;3.80;99.90
4643;DHT22;2334;48.710;9.622;2024-01-30T09:45:50;3.90;99.90
4643;DHT22;2334;48.710;9.622;2024-01-30T09:48:19;4.00;99.90
4643;DHT22;2334;48.710;9.622;2024-01-30T09:50:46;4.20;99.90
4643;DHT22;2334;48.710;9.622;2024-01-30T09:53:14;4.50;99.90
4643;DHT22;2334;48.710;9.622;2024-01-30T09:55:43;4.70;99.90
4643;DHT22;2334;48.710;9.622;2024-01-30T09:58:12;4.90;99.90
4643;DHT22;2334;48.710;9.622;2024-01-30T10:00:38;5.00;99.90
4643;DHT22;2334;48.710;9.622;2024-01-30T10:03:05;5.10;99.90
4643;DHT22;2334;48.710;9.622;2024-01-30T10:05:35;5.10;99.90
4643;DHT22;2334;48.710;9.622;2024-01-30T10:08:06;5.20;99.90
4643;DHT22;2334;48.710;9.622;2024-01-30T10:10:33;5.40;99.90
4643;DHT22;2334;48.710;9.622;2024-01-30T10:13:00;5.40;99.90
4643;DHT22;2334;48.710;9.622;2024-01-30T10:15:28;5.50;99.90
4643;DHT22;2334;48.710;9.622;2024-01-30T10:17:55;5.60;99.90
4643;DHT22;2334;48.710;9.622;2024-01-30T10:20:22;5.70;99.90
4643;DHT22;2334;48.710;9.622;2024-01-30T10:22:52;5.70;99.90
4643;DHT22;2334;48.710;9.622;2024-01-30T10:25:21;5.80;99.90
4643;DHT22;2334;48.710;9.622;2024-01-30T10:27:52;5.90;99.90
4643;DHT22;2334;48.710;9.622;2024-01-30T10:30:19;6.00;99.90
4643;DHT22;2334;48.710;9.622;2024-01-30T10:32:46;6.10;99.90
4643;DHT22;2334;48.710;9.622;2024-01-30T10:35:13;6.20;99.90
4643;DHT22;2334;48.710;9.622;2024-01-30T10:37:41;6.30;99.90
4643;DHT22;2334;48.710;9.622;2024-01-30T10:40:13;6.40;99.90
4643;DHT22;2334;48.710;9.622;2024-01-30T10:42:43;6.40;99.90
4643;DHT22;2334;48.710;9.622;2024-01-30T10:45:11;6.40;99.90
4643;DHT22;2334;48.710;9.622;2024-01-30T10:47:40;6.40;99.90
4643;DHT22;2334;48.710;9.622;2024-01-30T10:50:08;6.30;99.90
4643;DHT22;2334;48.710;9.622;2024-01-30T10:52:36;6.40;99.90
4643;DHT22;2334;48.710;9.622;2024-01-30T10:55:04;6.50;99.90
4643;DHT22;2334;48.710;9.622;2024-01-30T10:57:35;6.70;99.90
4643;DHT22;2334;48.710;9.622;2024-01-30T11:00:05;6.90;99.90
4643;DHT22;2334;48.710;9.622;2024-01-30T11:02:37;6.90;99.90
4643;DHT22;2334;48.710;9.622;2024-01-30T11:05:05;7.00;99.90
4643;DHT22;2334;48.710;9.622;2024-01-30T11:07:34;7.10;99.90
4643;DHT22;2334;48.710;9.622;2024-01-30T11:10:02;7.30;99.90
4643;DHT22;2334;48.710;9.622;2024-01-30T11:12:30;7.40;99.90
4643;DHT22;2334;48.710;9.622;2024-01-30T11:15:04;7.30;99.90
4643;DHT22;2334;48.710;9.622;2024-01-30T11:17:45;7.40;99.90
4643;DHT22;2334;48.710;9.622;2024-01-30T11:20:14;7.40;99.90
4643;DHT22;2334;48.710;9.622;2024-01-30T11:22:43;7.40;99.90
4643;DHT22;2334;48.710;9.622;2024-01-30T11:25:12;7.40;99.90
4643;DHT22;2334;48.710;9.622;2024-01-30T11:27:39;7.50;99.90
4643;DHT22;2334;48.710;9.622;2024-01-30T11:30:08;7.50;99.90
4643;DHT22;2334;48.710;9.622;2024-01-30T11:32:35;7.60;99.90
4643;DHT22;2334;48.710;9.622;2024-01-30T11:35:04;7.60;99.90
4643;DHT22;2334;48.710;9.622;2024-01-30T11:37:32;7.70;99.90
4643;DHT22;2334;48.710;9.622;2024-01-30T11:40:03;7.80;99.90
4643;DHT22;2334;48.710;9.622;2024-01-30T11:42:30;7.90;99.90
4643;DHT22;2334;48.710;9.622;2024-01-30T11:45:00;8.00;99.90
4643;DHT22;2334;48.710;9.622;2024-01-30T11:47:28;8.00;99.90
4643;DHT22;2334;48.710;9.622;2024-01-30T11:49:55;8.10;99.90
4643;DHT22;2334;48.710;9.622;2024-01-30T11:52:22;8.10;99.90
4643;DHT22;2334;48.710;9.622;2024-01-30T11:54:49;8.30;99.90
4643;DHT22;2334;48.710;9.622;2024-01-30T11:57:16;8.40;99.90
4643;DHT22;2334;48.710;9.622;2024-01-30T11:59:43;8.50;99.90
4643;DHT22;2334;48.710;9.622;2024-01-30T12:02:15;8.50;99.90
4643;DHT22;2334;48.710;9.622;2024-01-30T12:04:44;8.60;99.90
4643;DHT22;2334;48.710;9.622;2024-01-30T12:07:11;8.70;99.90
4643;DHT22;2334;48.710;9.622;2024-01-30T12:09:38;8.70;99.90
4643;DHT22;2334;48.710;9.622;2024-01-30T12:12:07;8.80;99.90
4643;DHT22;2334;48.710;9.622;2024-01-30T12:14:37;8.80;99.90
4643;DHT22;2334;48.710;9.622;2024-01-30T12:17:05;8.90;99.90
4643;DHT22;2334;48.710;9.622;2024-01-30T12:19:33;8.90;99.90
4643;DHT22;2334;48.710;9.622;2024-01-30T12:22:01;9.00;99.90
4643;DHT22;2334;48.710;9.622;2024-01-30T12:24:28;9.00;99.90
4643;DHT22;2334;48.710;9.622;2024-01-30T12:26:57;9.00;99.90
4643;DHT22;2334;48.710;9.622;2024-01-30T12:29:24;9.10;99.90
4643;DHT22;2334;48.710;9.622;2024-01-30T12:31:53;9.10;99.90
4643;DHT22;2334;48.710;9.622;2024-01-30T12:34:20;9.10;99.90
4643;DHT22;2334;48.710;9.622;2024-01-30T12:36:47;9.20;99.90
4643;DHT22;2334;48.710;9.622;2024-01-30T12:39:16;9.30;99.90
4643;DHT22;2334;48.710;9.622;2024-01-30T12:41:43;9.30;99.90
4643;DHT22;2334;48.710;9.622;2024-01-30T12:44:10;9.40;99.90
4643;DHT22;2334;48.710;9.622;2024-01-30T12:46:37;9.40;99.90
4643;DHT22;2334;48.710;9.622;2024-01-30T12:49:05;9.40;99.90
4643;DHT22;2334;48.710;9.622;2024-01-30T12:51:34;9.40;99.90
4643;DHT22;2334;48.710;9.622;2024-01-30T12:54:05;9.40;99.90
4643;DHT22;2334;48.710;9.622;2024-01-30T12:56:33;9.40;99.90
4643;DHT22;2334;48.710;9.622;2024-01-30T12:59:00;9.50;99.90
4643;DHT22;2334;48.710;9.622;2024-01-30T13:01:27;9.50;99.90
4643;DHT22;2334;48.710;9.622;2024-01-30T13:03:54;9.60;99.90
4643;DHT22;2334;48.710;9.622;2024-01-30T13:06:23;9.60;99.90
4643;DHT22;2334;48.710;9.622;2024-01-30T13:08:49;9.60;99.90
4643;DHT22;2334;48.710;9.622;2024-01-30T13:11:16;9.60;99.90
4643;DHT22;2334;48.710;9.622;2024-01-30T13:13:45;9.60;99.90
4643;DHT22;2334;48.710;9.622;2024-01-30T13:16:11;9.70;99.90
4643;DHT22;2334;48.710;9.622;2024-01-30T13:18:38;9.70;99.90
4643;DHT22;2334;48.710;9.622;2024-01-30T13:21:05;9.80;99.90
4643;DHT22;2334;48.710;9.622;2024-01-30T13:23:32;9.80;99.90
4643;DHT22;2334;48.710;9.622;2024-01-30T13:25:59;9.80;99.90
4643;DHT22;2334;48.710;9.622;2024-01-30T13:28:26;9.90;99.90
4643;DHT22;2334;48.710;9.622;2024-01-30T13:30:54;9.90;99.90
4643;DHT22;2334;48.710;9.622;2024-01-30T13:33:21;10.00;99.90
4643;DHT22;2334;48.710;9.622;2024-01-30T13:35:48;10.10;99.90
4643;DHT22;2334;48.710;9.622;2024-01-30T13:38:15;10.10;99.90
4643;DHT22;2334;48.710;9.622;2024-01-30T13:40:42;10.10;99.90
4643;DHT22;2334;48.710;9.622;2024-01-30T13:43:09;10.20;99.90
4643;DHT22;2334;48.710;9.622;2024-01-30T13:45:36;10.20;99.90
4643;DHT22;2334;48.710;9.622;2024-01-30T13:48:05;10.20;99.90
4643;DHT22;2334;48.710;9.622;2024-01-30T13:50:32;10.30;99.90
4643;DHT22;2334;48.710;9.622;2024-01-30T13:52:59;10.30;99.90
4643;DHT22;2334;48.710;9.622;2024-01-30T13:55:26;10.30;99.90
4643;DHT22;2334;48.710;9.622;2024-01-30T13:57:53;10.30;99.90
4643;DHT22;2334;48.710;9.622;2024-01-30T14:00:21;10.30;99.90
4643;DHT22;2334;48.710;9.622;2024-01-30T14:02:48;10.20;99.90
4643;DHT22;2334;48.710;9.622;2024-01-30T14:05:16;10.10;99.90
4643;DHT22;2334;48.710;9.622;2024-01-30T14:07:44;10.10;99.90
4643;DHT22;2334;48.710;9.622;2024-01-30T14:10:11;10.10;99.90
4643;DHT22;2334;48.710;9.622;2024-01-30T14:12:38;10.20;99.90
4643;DHT22;2334;48.710;9.622;2024-01-30T14:15:07;10.20;99.90
4643;DHT22;2334;48.710;9.622;2024-01-30T14:17:35;10.20;99.90
4643;DHT22;2334;48.710;9.622;2024-01-30T14:20:02;10.10;99.90
4643;DHT22;2334;48.710;9.622;2024-01-30T14:22:31;10.10;99.90
4643;DHT22;2334;48.710;9.622;2024-01-30T14:24:59;10.00;99.90
4643;DHT22;2334;48.710;9.622;2024-01-30T14:27:25;10.00;99.90
4643;DHT22;2334;48.710;9.622;2024-01-30T14:29:52;9.90;99.90
4643;DHT22;2334;48.710;9.622;2024-01-30T14:32:20;9.90;99.90
4643;DHT22;2334;48.710;9.622;2024-01-30T14:34:47;9.80;99.90
4643;DHT22;2334;48.710;9.622;2024-01-30T14:37:14;9.80;99.90
4643;DHT22;2334;48.710;9.622;2024-01-30T14:39:42;9.80;99.90
4643;DHT22;2334;48.710;9.622;2024-01-30T14:42:09;9.80;99.90
4643;DHT22;2334;48.710;9.622;2024-01-30T14:44:36;9.70;99.90
4643;DHT22;2334;48.710;9.622;2024-01-30T14:47:03;9.60;99.90
4643;DHT22;2334;48.710;9.622;2024-01-30T14:49:30;9.70;99.90
4643;DHT22;2334;48.710;9.622;2024-01-30T14:51:57;9.60;99.90
4643;DHT22;2334;48.710;9.622;2024-01-30T14:54:24;9.50;99.90
4643;DHT22;2334;48.710;9.622;2024-01-30T14:56:53;9.50;99.90
4643;DHT22;2334;48.710;9.622;2024-01-30T14:59:20;9.50;99.90
4643;DHT22;2334;48.710;9.622;2024-01-30T15:01:47;9.40;99.90
4643;DHT22;2334;48.710;9.622;2024-01-30T15:04:14;9.40;99.90
4643;DHT22;2334;48.710;9.622;2024-01-30T15:06:41;9.30;99.90
4643;DHT22;2334;48.710;9.622;2024-01-30T15:09:10;9.20;99.90
4643;DHT22;2334;48.710;9.622;2024-01-30T15:11:40;9.20;99.90
4643;DHT22;2334;48.710;9.622;2024-01-30T15:14:08;9.10;99.90
4643;DHT22;2334;48.710;9.622;2024-01-30T15:16:35;9.00;99.90
4643;DHT22;2334;48.710;9.622;2024-01-30T15:19:02;9.00;99.90
4643;DHT22;2334;48.710;9.622;2024-01-30T15:21:30;8.90;99.90
4643;DHT22;2334;48.710;9.622;2024-01-30T15:23:57;8.80;99.90
4643;DHT22;2334;48.710;9.622;2024-01-30T15:26:24;8.80;99.90
4643;DHT22;2334;48.710;9.622;2024-01-30T15:28:51;8.70;99.90
4643;DHT22;2334;48.710;9.622;2024-01-30T15:31:19;8.60;99.90
4643;DHT22;2334;48.710;9.622;2024-01-30T15:33:47;8.60;99.90
4643;DHT22;2334;48.710;9.622;2024-01-30T15:36:14;8.50;99.90
4643;DHT22;2334;48.710;9.622;2024-01-30T15:38:41;8.40;99.90
4643;DHT22;2334;48.710;9.622;2024-01-30T15:41:08;8.30;99.90
4643;DHT22;2334;48.710;9.622;2024-01-30T15:43:35;8.20;99.90
4643;DHT22;2334;48.710;9.622;2024-01-30T15:46:02;8.20;99.90
4643;DHT22;2334;48.710;9.622;2024-01-30T15:48:31;8.10;99.90
4643;DHT22;2334;48.710;9.622;2024-01-30T15:50:57;8.10;99.90
4643;DHT22;2334;48.710;9.622;2024-01-30T15:53:26;8.10;99.90
4643;DHT22;2334;48.710;9.622;2024-01-30T15:55:53;8.00;99.90
4643;DHT22;2334;48.710;9.622;2024-01-30T15:58:20;8.10;99.90
4643;DHT22;2334;48.710;9.622;2024-01-30T16:00:47;8.00;99.90
4643;DHT22;2334;48.710;9.622;2024-01-30T16:03:14;7.90;99.90
4643;DHT22;2334;48.710;9.622;2024-01-30T16:05:42;7.80;99.90
4643;DHT22;2334;48.710;9.622;2024-01-30T16:08:09;7.70;99.90
4643;DHT22;2334;48.710;9.622;2024-01-30T16:10:35;7.60;99.90
4643;DHT22;2334;48.710;9.622;2024-01-30T16:13:03;7.50;99.90